createdAt,value
2019-02-18T00:01:19.505Z,98543.84
2019-02-18T00:03:50.116Z,98547.66
2019-02-18T00:06:19.937Z,98537.32
2019-02-18T00:08:50.831Z,98537.56
2019-02-18T00:11:20.475Z,98534.05
2019-02-18T00:13:50.211Z,98532.67
2019-02-18T00:16:22.866Z,98535.58
2019-02-18T00:18:53.475Z,98532.78
2019-02-18T00:21:23.833Z,98536.02
2019-02-18T00:23:55.155Z,98541.15
2019-02-18T00:26:24.769Z,98531.89
2019-02-18T00:28:56.134Z,98538.13
2019-02-18T00:31:25.768Z,98537.09
2019-02-18T00:33:58.574Z,98530.06
2019-02-18T00:36:28.190Z,98536.61
2019-02-18T00:38:59.570Z,98535.78
2019-02-18T00:41:29.618Z,98536.08
2019-02-18T00:44:02.278Z,98536.31
2019-02-18T00:46:33.149Z,98536.03
2019-02-18T00:49:05.727Z,98533.05
2019-02-18T00:51:36.076Z,98530.55
2019-02-18T00:54:05.159Z,98531.94
2019-02-18T00:56:35.920Z,98535.78
2019-02-18T00:59:07.469Z,98536.05
2019-02-18T01:01:38.805Z,98533.63
2019-02-18T01:04:08.638Z,98536.38
2019-02-18T01:06:36.892Z,98539.38
2019-02-18T01:09:06.635Z,98530.42
2019-02-18T01:11:36.536Z,98541.56
2019-02-18T01:14:08.545Z,98529.31
2019-02-18T01:16:39.887Z,98526.22
2019-02-18T01:19:10.198Z,98526.22
2019-02-18T01:21:40.999Z,98531.83
2019-02-18T01:24:10.760Z,98529.89
2019-02-18T01:26:40.927Z,98522.84
2019-02-18T01:29:12.850Z,98529.62
2019-02-18T01:31:44.663Z,98523.05
2019-02-18T01:34:14.365Z,98518.93
2019-02-18T01:36:45.742Z,98516.44
2019-02-18T01:39:15.365Z,98514.02
2019-02-18T01:41:45.990Z,98517.77
2019-02-18T01:44:15.849Z,98508.88
2019-02-18T01:46:46.629Z,98508.36
2019-02-18T01:49:17.066Z,98504.55
2019-02-18T01:51:49.806Z,98505.63
2019-02-18T01:54:19.659Z,98505.06
2019-02-18T01:56:49.284Z,98503.16
2019-02-18T01:59:20.654Z,98505.89
2019-02-18T02:01:51.434Z,98496.92
2019-02-18T02:04:22.798Z,98496.03
2019-02-18T02:06:53.362Z,98494.92
2019-02-18T02:09:23.612Z,98488.94
2019-02-18T02:11:53.581Z,98485.69
2019-02-18T02:14:23.635Z,98482.95
2019-02-18T02:16:54.725Z,98473.45
2019-02-18T02:19:24.394Z,98479.73
2019-02-18T02:21:55.725Z,98474.06
2019-02-18T02:24:27.090Z,98467.86
2019-02-18T02:26:57.519Z,98470.26
2019-02-18T02:29:26.594Z,98465.88
2019-02-18T02:31:57.204Z,98465.83
2019-02-18T02:34:27.491Z,98457.15
2019-02-18T02:36:58.357Z,98457.98
2019-02-18T02:39:29.650Z,98456.09
2019-02-18T02:42:00.433Z,98456.89
2019-02-18T02:44:30.850Z,98453.87
2019-02-18T02:47:02.916Z,98453.33
2019-02-18T02:49:32.544Z,98454.41
2019-02-18T02:52:07.438Z,98448.98
2019-02-18T02:54:37.457Z,98451.45
2019-02-18T02:57:07.105Z,98454.44
2019-02-18T02:59:38.352Z,98447.90
2019-02-18T03:02:08.199Z,98446.52
2019-02-18T03:04:39.542Z,98441.78
2019-02-18T03:07:09.233Z,98447.50
2019-02-18T03:09:39.248Z,98443.20
2019-02-18T03:12:09.647Z,98434.27
2019-02-18T03:14:40.472Z,98443.17
2019-02-18T03:17:11.827Z,98446.56
2019-02-18T03:19:41.442Z,98448.48
2019-02-18T03:22:11.082Z,98447.95
2019-02-18T03:24:44.338Z,98446.86
2019-02-18T03:27:15.715Z,98440.55
2019-02-18T03:30:06.934Z,98444.30
2019-02-18T03:32:39.901Z,98442.94
2019-02-18T03:35:13.871Z,98448.39
2019-02-18T03:37:44.661Z,98441.31
2019-02-18T03:40:15.446Z,98441.81
2019-02-18T03:42:48.592Z,98441.28
2019-02-18T03:45:19.151Z,98438.55
2019-02-18T03:47:50.560Z,98444.00
2019-02-18T03:50:21.143Z,98440.20
2019-02-18T03:52:51.805Z,98446.41
2019-02-18T03:55:21.638Z,98439.64
2019-02-18T03:57:51.353Z,98445.91
2019-02-18T04:00:21.154Z,98446.21
2019-02-18T04:02:51.587Z,98439.77
2019-02-18T04:05:21.420Z,98440.79
2019-02-18T04:07:52.209Z,98443.77
2019-02-18T04:10:23.616Z,98442.70
2019-02-18T04:12:54.675Z,98446.18
2019-02-18T04:15:26.006Z,98445.91
2019-02-18T04:17:56.376Z,98451.59
2019-02-18T04:20:26.934Z,98449.42
2019-02-18T04:22:57.354Z,98447.80
2019-02-18T04:25:28.781Z,98455.66
2019-02-18T04:27:59.202Z,98445.58
2019-02-18T04:30:28.268Z,98450.41
2019-02-18T04:33:01.521Z,98452.78
2019-02-18T04:35:34.372Z,98450.53
2019-02-18T04:38:06.835Z,98455.16
2019-02-18T04:40:38.175Z,98452.78
2019-02-18T04:43:09.488Z,98450.30
2019-02-18T04:45:39.871Z,98447.66
2019-02-18T04:48:10.692Z,98448.98
2019-02-18T04:50:40.373Z,98446.37
2019-02-18T04:53:11.282Z,98446.64
2019-02-18T04:55:41.126Z,98452.33
2019-02-18T04:58:12.532Z,98448.56
2019-02-18T05:00:42.334Z,98460.00
2019-02-18T05:03:12.150Z,98448.09
2019-02-18T05:05:43.473Z,98451.75
2019-02-18T05:08:15.351Z,98447.69
2019-02-18T05:10:45.015Z,98450.84
2019-02-18T05:13:15.423Z,98446.21
2019-02-18T05:15:46.263Z,98449.35
2019-02-18T05:18:16.403Z,98449.81
2019-02-18T05:20:46.216Z,98438.80
2019-02-18T05:23:16.095Z,98442.33
2019-02-18T05:25:45.925Z,98440.30
2019-02-18T05:28:15.061Z,98444.31
2019-02-18T05:30:45.638Z,98447.81
2019-02-18T05:33:16.886Z,98441.95
2019-02-18T05:35:48.307Z,98441.77
2019-02-18T05:38:17.901Z,98445.27
2019-02-18T05:40:50.771Z,98447.14
2019-02-18T05:43:22.100Z,98442.37
2019-02-18T05:45:53.468Z,98444.89
2019-02-18T05:48:23.300Z,98446.80
2019-02-18T05:50:53.904Z,98448.76
2019-02-18T05:53:23.745Z,98445.19
2019-02-18T05:55:54.752Z,98447.78
2019-02-18T05:58:24.548Z,98442.89
2019-02-18T06:00:54.985Z,98450.45
2019-02-18T06:03:26.346Z,98451.62
2019-02-18T06:05:57.718Z,98443.42
2019-02-18T06:08:28.142Z,98441.47
2019-02-18T06:10:58.610Z,98445.19
2019-02-18T06:13:28.425Z,98437.63
2019-02-18T06:15:58.319Z,98447.84
2019-02-18T06:18:27.287Z,98444.89
2019-02-18T06:20:57.908Z,98446.05
2019-02-18T06:23:30.025Z,98436.09
2019-02-18T06:26:05.824Z,98438.67
2019-02-18T06:28:37.140Z,98443.11
2019-02-18T06:31:07.177Z,98445.81
2019-02-18T06:33:37.000Z,98442.02
2019-02-18T06:36:05.450Z,98444.39
2019-02-18T06:38:36.215Z,98449.05
2019-02-18T06:41:07.951Z,98448.03
2019-02-18T06:43:39.207Z,98450.12
2019-02-18T06:46:13.663Z,98453.56
2019-02-18T06:48:44.896Z,98454.56
2019-02-18T06:51:14.477Z,98457.33
2019-02-18T06:53:44.129Z,98457.03
2019-02-18T06:56:13.737Z,98457.99
2019-02-18T06:58:46.763Z,98449.92
2019-02-18T07:01:24.274Z,98450.47
2019-02-18T07:03:55.491Z,98458.14
2019-02-18T07:06:35.487Z,98459.02
2019-02-18T07:09:22.979Z,98461.55
2019-02-18T07:11:56.354Z,98462.81
2019-02-18T07:14:26.372Z,98463.54
2019-02-18T07:16:59.786Z,98457.15
2019-02-18T07:19:32.885Z,98456.34
2019-02-18T07:22:06.803Z,98452.09
2019-02-18T07:24:37.143Z,98446.47
2019-02-18T07:27:07.729Z,98443.34
2019-02-18T07:29:39.060Z,98437.91
2019-02-18T07:32:09.426Z,98443.06
2019-02-18T07:34:39.038Z,98443.98
2019-02-18T07:37:08.711Z,98445.06
2019-02-18T07:39:41.936Z,98442.02
2019-02-18T07:42:13.263Z,98445.63
2019-02-18T07:44:45.403Z,98444.64
2019-02-18T07:47:16.753Z,98434.11
2019-02-18T07:49:47.137Z,98434.00
2019-02-18T07:52:16.805Z,98436.52
2019-02-18T07:54:46.905Z,98431.73
2019-02-18T07:57:17.394Z,98426.24
2019-02-18T07:59:47.952Z,98426.91
2019-02-18T08:02:21.203Z,98426.44
2019-02-18T08:04:51.765Z,98421.02
2019-02-18T08:07:21.808Z,98423.31
2019-02-18T08:09:53.204Z,98418.12
2019-02-18T08:12:23.696Z,98414.39
2019-02-18T08:14:56.549Z,98420.83
2019-02-18T08:17:27.984Z,98416.16
2019-02-18T08:19:58.708Z,98416.22
2019-02-18T08:22:30.063Z,98418.06
2019-02-18T08:25:00.052Z,98421.45
2019-02-18T08:27:30.440Z,98417.06
2019-02-18T08:30:03.154Z,98415.14
2019-02-18T08:32:34.613Z,98418.45
2019-02-18T08:35:05.455Z,98420.09
2019-02-18T08:37:35.875Z,98418.52
2019-02-18T08:40:06.192Z,98416.37
2019-02-18T08:42:35.744Z,98415.25
2019-02-18T08:45:06.771Z,98415.21
2019-02-18T08:47:40.117Z,98422.77
2019-02-18T08:50:12.499Z,98423.63
2019-02-18T08:52:42.264Z,98413.86
2019-02-18T08:55:15.838Z,98418.84
2019-02-18T08:57:44.894Z,98415.36
2019-02-18T09:02:52.625Z,98414.36
2019-02-18T09:05:24.052Z,98409.17
2019-02-18T09:07:54.132Z,98406.69
2019-02-18T09:10:33.204Z,98520.72
2019-02-18T09:12:58.009Z,98407.36
2019-02-18T09:15:30.272Z,98405.02
2019-02-18T09:18:01.043Z,98399.03
2019-02-18T09:20:31.461Z,98397.17
2019-02-18T09:23:05.903Z,98396.03
2019-02-18T09:25:38.265Z,98396.03
2019-02-18T09:28:08.136Z,98400.45
2019-02-18T09:30:39.429Z,98398.85
2019-02-18T09:33:09.218Z,98399.83
2019-02-18T09:35:40.018Z,98402.29
2019-02-18T09:38:23.768Z,98403.92
2019-02-18T09:40:48.356Z,98408.13
2019-02-18T09:43:16.184Z,98407.20
2019-02-18T09:45:47.636Z,98408.25
2019-02-18T09:48:18.961Z,98409.38
2019-02-18T09:50:51.396Z,98405.48
2019-02-18T09:53:20.656Z,98410.18
2019-02-18T09:55:55.377Z,98404.83
2019-02-18T09:58:28.288Z,98408.95
2019-02-18T10:00:58.152Z,98412.70
2019-02-18T10:03:32.100Z,98403.59
2019-02-18T10:06:02.160Z,98409.63
2019-02-18T10:08:33.012Z,98413.94
2019-02-18T10:11:04.688Z,98403.95
2019-02-18T10:13:34.741Z,98410.53
2019-02-18T10:16:06.730Z,98405.10
2019-02-18T10:18:36.800Z,98398.31
2019-02-18T10:21:07.201Z,98398.34
2019-02-18T10:23:38.040Z,98399.08
2019-02-18T10:26:08.816Z,98392.28
2019-02-18T10:28:38.633Z,98389.77
2019-02-18T10:31:10.021Z,98388.18
2019-02-18T10:33:39.121Z,98389.38
2019-02-18T10:36:09.920Z,98389.91
2019-02-18T10:38:40.319Z,98383.06
2019-02-18T10:41:11.795Z,98382.51
2019-02-18T10:43:43.118Z,98377.55
2019-02-18T10:46:13.911Z,98370.41
2019-02-18T10:48:42.870Z,98372.52
2019-02-18T10:51:13.458Z,98375.07
2019-02-18T10:53:44.883Z,98360.38
2019-02-18T10:56:17.493Z,98359.71
2019-02-18T10:58:49.968Z,98346.34
2019-02-18T11:01:20.768Z,98351.33
2019-02-18T11:03:52.132Z,98350.50
2019-02-18T11:06:23.000Z,98346.95
2019-02-18T11:08:52.657Z,98337.67
2019-02-18T11:11:25.123Z,98341.59
2019-02-18T11:13:54.864Z,98331.27
2019-02-18T11:16:26.295Z,98328.12
2019-02-18T11:18:59.838Z,98316.26
2019-02-18T11:21:32.302Z,98317.30
2019-02-18T11:24:01.352Z,98320.20
2019-02-18T11:26:30.466Z,98309.30
2019-02-18T11:29:01.807Z,98303.52
2019-02-18T11:31:32.804Z,98295.89
2019-02-18T11:34:03.639Z,98294.85
2019-02-18T11:36:34.019Z,98291.68
2019-02-18T11:39:05.125Z,98286.11
2019-02-18T11:41:36.517Z,98286.17
2019-02-18T11:44:09.741Z,98278.97
2019-02-18T11:46:42.995Z,98273.92
2019-02-18T11:49:13.919Z,98269.12
2019-02-18T11:51:44.494Z,98267.06
2019-02-18T11:54:17.029Z,98271.45
2019-02-18T11:56:46.381Z,98259.96
2019-02-18T11:59:24.203Z,98256.78
2019-02-18T12:01:50.867Z,98252.30
2019-02-18T12:04:22.184Z,98243.13
2019-02-18T12:09:45.486Z,98231.57
2019-02-18T12:12:16.782Z,98225.83
2019-02-18T12:14:47.172Z,98225.61
2019-02-18T12:17:20.843Z,98222.98
2019-02-18T12:19:50.334Z,98223.27
2019-02-18T12:22:20.193Z,98217.50
2019-02-18T12:24:49.347Z,98207.98
2019-02-18T12:27:19.823Z,98212.11
2019-02-18T12:29:49.475Z,98206.67
2019-02-18T12:32:19.998Z,98206.16
2019-02-18T12:34:50.357Z,98204.34
2019-02-18T12:37:19.429Z,98196.27
2019-02-18T12:39:49.430Z,98195.81
2019-02-18T12:42:20.511Z,98188.78
2019-02-18T12:44:51.107Z,98189.00
2019-02-18T12:47:21.586Z,98183.73
2019-02-18T12:49:52.178Z,98173.80
2019-02-18T12:52:22.465Z,98174.95
2019-02-18T12:54:52.948Z,98169.42
2019-02-18T12:57:23.630Z,98166.06
2019-02-18T12:59:56.370Z,98156.87
2019-02-18T13:02:27.782Z,98150.41
2019-02-18T13:04:57.774Z,98144.41
2019-02-18T13:07:28.527Z,98146.83
2019-02-18T13:09:59.510Z,98139.56
2019-02-18T13:12:29.888Z,98134.66
2019-02-18T13:15:00.437Z,98131.23
2019-02-18T13:17:30.521Z,98131.48
2019-02-18T13:20:00.406Z,98121.28
2019-02-18T13:22:31.780Z,98121.94
2019-02-18T13:25:07.598Z,98117.84
2019-02-18T13:27:39.770Z,98110.66
2019-02-18T13:30:25.813Z,98115.55
2019-02-18T13:32:56.624Z,98111.19
2019-02-18T13:35:27.408Z,98099.12
2019-02-18T13:37:58.638Z,98101.75
2019-02-18T13:40:33.742Z,98100.11
2019-02-18T13:43:04.495Z,98100.16
2019-02-18T13:45:34.144Z,98099.05
2019-02-18T13:48:05.556Z,98097.08
2019-02-18T13:50:36.803Z,98097.52
2019-02-18T13:53:06.144Z,98102.38
2019-02-18T13:55:39.002Z,98098.06
2019-02-18T13:58:10.925Z,98093.42
2019-02-18T14:00:42.286Z,98095.70
2019-02-18T14:03:15.540Z,98094.69
2019-02-18T14:05:47.844Z,98080.19
2019-02-18T14:08:18.624Z,98082.48
2019-02-18T14:10:48.288Z,98082.44
2019-02-18T14:13:17.925Z,98079.03
2019-02-18T14:15:48.356Z,98078.66
2019-02-18T14:18:19.134Z,98087.06
2019-02-18T14:20:49.439Z,98078.45
2019-02-18T14:23:18.447Z,98077.00
2019-02-18T14:25:49.328Z,98076.83
2019-02-18T14:28:19.715Z,98075.02
2019-02-18T14:30:50.530Z,98063.79
2019-02-18T14:33:21.011Z,98063.79
2019-02-18T14:35:50.659Z,98064.53
2019-02-18T14:38:21.333Z,98054.52
2019-02-18T14:40:51.230Z,98061.77
2019-02-18T14:43:21.411Z,98055.33
2019-02-18T14:45:51.460Z,98054.77
2019-02-18T14:48:23.566Z,98049.58
2019-02-18T14:50:56.683Z,98050.53
2019-02-18T14:53:24.101Z,98050.79
2019-02-18T14:55:55.671Z,98052.56
2019-02-18T14:58:25.515Z,98044.70
2019-02-18T15:00:55.874Z,98050.50
2019-02-18T15:03:26.305Z,98047.02
2019-02-18T15:05:57.676Z,98040.14
2019-02-18T15:08:30.036Z,98040.99
2019-02-18T15:11:00.016Z,98045.50
2019-02-18T15:13:31.153Z,98038.59
2019-02-18T15:16:02.382Z,98034.44
2019-02-18T15:18:34.283Z,98036.06
2019-02-18T15:21:04.672Z,98030.98
2019-02-18T15:23:36.118Z,98028.23
2019-02-18T15:26:09.422Z,98028.47
2019-02-18T15:28:39.265Z,98025.25
2019-02-18T15:31:10.675Z,98031.35
2019-02-18T15:33:40.494Z,98022.49
2019-02-18T15:36:13.650Z,98013.48
2019-02-18T15:38:45.326Z,98006.70
2019-02-18T15:41:16.559Z,98015.83
2019-02-18T15:43:47.426Z,98016.40
2019-02-18T15:46:18.192Z,98013.10
2019-02-18T15:48:49.579Z,98013.67
2019-02-18T15:51:21.071Z,98014.27
2019-02-18T15:53:54.318Z,98012.85
2019-02-18T15:56:24.878Z,98011.95
2019-02-18T15:58:54.704Z,98005.95
2019-02-18T16:01:23.740Z,98004.92
2019-02-18T16:03:52.642Z,97996.30
2019-02-18T16:06:24.529Z,97996.64
2019-02-18T16:08:54.175Z,98001.12
2019-02-18T16:11:27.509Z,97995.35
2019-02-18T16:13:58.191Z,97990.53
2019-02-18T16:16:29.075Z,97993.48
2019-02-18T16:19:00.434Z,97985.67
2019-02-18T16:21:30.055Z,97986.24
2019-02-18T16:23:59.141Z,97983.53
2019-02-18T16:26:30.760Z,97984.55
2019-02-18T16:29:02.127Z,97984.65
2019-02-18T16:31:32.244Z,97984.62
2019-02-18T16:36:36.791Z,97989.85
2019-02-18T16:39:09.506Z,97988.78
2019-02-18T16:41:39.188Z,97991.68
2019-02-18T16:44:10.309Z,97991.98
2019-02-18T16:46:39.936Z,97989.39
2019-02-18T16:49:09.893Z,97993.95
2019-02-18T16:51:39.567Z,97997.00
2019-02-18T16:54:14.289Z,97995.36
2019-02-18T16:56:45.422Z,97995.84
2019-02-18T16:59:16.083Z,98006.37
2019-02-18T17:01:47.476Z,98002.60
2019-02-18T17:04:19.155Z,98004.12
2019-02-18T17:06:50.499Z,98005.55
2019-02-18T17:09:22.126Z,98005.75
2019-02-18T17:11:52.110Z,98006.69
2019-02-18T17:14:23.469Z,98004.61
2019-02-18T17:16:53.086Z,98002.27
2019-02-18T17:19:24.482Z,98006.59
2019-02-18T17:21:54.116Z,98005.95
2019-02-18T17:24:24.974Z,98000.45
2019-02-18T17:26:57.104Z,98006.40
2019-02-18T17:29:26.978Z,98005.08
2019-02-18T17:31:58.420Z,98009.33
2019-02-18T17:34:28.841Z,98007.23
2019-02-18T17:37:01.822Z,98002.56
2019-02-18T17:39:34.673Z,98001.11
2019-02-18T17:42:03.777Z,98003.77
2019-02-18T17:44:34.078Z,98000.62
2019-02-18T17:47:03.167Z,97994.06
2019-02-18T17:49:32.781Z,97993.90
2019-02-18T17:52:01.365Z,97995.99
2019-02-18T17:54:31.013Z,97997.59
2019-02-18T17:56:59.281Z,97995.95
2019-02-18T17:59:28.591Z,97995.72
2019-02-18T18:01:59.342Z,97998.91
2019-02-18T18:04:29.935Z,97999.34
2019-02-18T18:07:00.614Z,98005.30
2019-02-18T18:09:32.077Z,98004.84
2019-02-18T18:12:04.781Z,98008.38
2019-02-18T18:14:35.471Z,98010.95
2019-02-18T18:17:06.787Z,98006.39
2019-02-18T18:19:36.545Z,98002.34
2019-02-18T18:22:07.759Z,98004.12
2019-02-18T18:24:40.750Z,98001.58
2019-02-18T18:27:15.439Z,97995.73
2019-02-18T18:29:46.290Z,97996.25
2019-02-18T18:32:16.750Z,97989.19
2019-02-18T18:34:50.029Z,97986.71
2019-02-18T18:37:22.926Z,97991.47
2019-02-18T18:39:54.863Z,97985.13
2019-02-18T18:42:26.489Z,97986.73
2019-02-18T18:44:57.134Z,97989.24
2019-02-18T18:47:26.751Z,97987.01
2019-02-18T18:49:58.094Z,97983.31
2019-02-18T18:52:28.659Z,97993.44
2019-02-18T18:55:03.054Z,97994.72
2019-02-18T18:57:33.391Z,97994.29
2019-02-18T19:00:05.000Z,97989.58
2019-02-18T19:02:35.242Z,97990.33
2019-02-18T19:05:07.458Z,97989.25
2019-02-18T19:07:39.086Z,97982.38
2019-02-18T19:10:09.988Z,97988.09
2019-02-18T19:12:39.093Z,97984.13
2019-02-18T19:15:11.357Z,97980.66
2019-02-18T19:17:44.045Z,97983.94
2019-02-18T19:20:15.136Z,97986.21
2019-02-18T19:22:43.722Z,97977.11
2019-02-18T19:25:13.101Z,97975.15
2019-02-18T19:27:42.880Z,97975.85
2019-02-18T19:30:29.044Z,97972.41
2019-02-18T19:32:59.311Z,97977.18
2019-02-18T19:35:30.035Z,97982.54
2019-02-18T19:38:01.935Z,97979.61
2019-02-18T19:40:33.185Z,97984.67
2019-02-18T19:43:05.792Z,97987.21
2019-02-18T19:45:37.023Z,97991.37
2019-02-18T19:48:10.123Z,97994.55
2019-02-18T19:50:40.686Z,98001.89
2019-02-18T19:53:11.950Z,97998.75
2019-02-18T19:55:42.702Z,98000.77
2019-02-18T19:58:15.950Z,98005.03
2019-02-18T20:00:46.334Z,98007.43
2019-02-18T20:03:19.887Z,98007.70
2019-02-18T20:05:49.619Z,98009.56
2019-02-18T20:08:20.686Z,98007.83
2019-02-18T20:10:50.670Z,98002.30
2019-02-18T20:13:19.774Z,98002.53
2019-02-18T20:15:50.057Z,98004.24
2019-02-18T20:18:19.093Z,98006.73
2019-02-18T20:20:49.549Z,98006.25
2019-02-18T20:23:19.043Z,98002.22
2019-02-18T20:25:49.442Z,98008.95
2019-02-18T20:28:23.147Z,98011.08
2019-02-18T20:30:52.942Z,98009.08
2019-02-18T20:33:22.975Z,98006.05
2019-02-18T20:35:53.401Z,98004.86
2019-02-18T20:38:25.010Z,98009.32
2019-02-18T20:40:55.635Z,98009.41
2019-02-18T20:43:25.959Z,98002.38
2019-02-18T20:45:55.588Z,98003.92
2019-02-18T20:48:25.728Z,98010.47
2019-02-18T20:50:58.958Z,98007.28
2019-02-18T20:53:31.239Z,98006.86
2019-02-18T20:56:02.063Z,98009.09
2019-02-18T20:58:36.730Z,98008.86
2019-02-18T21:01:08.052Z,98005.13
2019-02-18T21:03:38.873Z,98004.93
2019-02-18T21:06:14.354Z,98008.02
2019-02-18T21:08:47.181Z,98003.63
2019-02-18T21:11:18.509Z,98006.55
2019-02-18T21:13:49.775Z,98006.05
2019-02-18T21:16:21.058Z,98000.12
2019-02-18T21:18:53.327Z,98003.92
2019-02-18T21:21:23.722Z,98005.37
2019-02-18T21:23:54.118Z,98007.62
2019-02-18T21:26:24.686Z,98004.72
2019-02-18T21:28:54.722Z,98005.89
2019-02-18T21:31:27.858Z,98009.53
2019-02-18T21:33:58.163Z,98006.58
2019-02-18T21:36:29.391Z,98004.92
2019-02-18T21:39:00.677Z,98005.83
2019-02-18T21:41:32.035Z,98006.90
2019-02-18T21:46:37.775Z,98013.17
2019-02-18T21:49:08.435Z,98005.53
2019-02-18T21:51:37.474Z,98008.28
2019-02-18T21:54:06.545Z,98012.75
2019-02-18T21:56:35.614Z,98015.33
2019-02-18T21:59:08.856Z,98009.33
2019-02-18T22:01:38.500Z,98009.94
2019-02-18T22:04:09.455Z,98006.46
2019-02-18T22:06:38.572Z,98007.05
2019-02-18T22:09:09.832Z,98002.98
2019-02-18T22:11:42.318Z,98002.98
2019-02-18T22:14:12.136Z,98004.95
2019-02-18T22:16:44.481Z,98002.44
2019-02-18T22:19:14.931Z,98004.03
2019-02-18T22:21:45.782Z,98014.11
2019-02-18T22:24:15.440Z,98011.32
2019-02-18T22:26:46.058Z,98012.16
2019-02-18T22:29:17.395Z,98011.32
2019-02-18T22:31:50.606Z,98009.14
2019-02-18T22:34:20.094Z,98009.50
2019-02-18T22:36:50.952Z,98007.91
2019-02-18T22:39:21.711Z,98013.14
2019-02-18T22:41:52.129Z,98008.05
2019-02-18T22:44:23.317Z,98005.77
2019-02-18T22:46:54.286Z,97999.34
2019-02-18T22:49:25.682Z,97993.90
2019-02-18T22:51:56.478Z,98000.94
2019-02-18T22:54:26.943Z,98001.16
2019-02-18T22:56:58.144Z,98001.69
2019-02-18T22:59:28.321Z,98005.02
2019-02-18T23:02:00.049Z,98009.34
2019-02-18T23:04:30.677Z,98013.48
2019-02-18T23:07:00.522Z,98002.59
2019-02-18T23:09:30.915Z,98010.64
2019-02-18T23:12:01.709Z,98006.27
2019-02-18T23:14:32.673Z,98009.05
2019-02-18T23:17:05.862Z,98010.95
2019-02-18T23:19:35.498Z,98016.44
2019-02-18T23:22:08.335Z,98017.75
2019-02-18T23:24:37.376Z,98021.94
2019-02-18T23:27:08.559Z,98026.56
2019-02-18T23:29:38.367Z,98021.12
2019-02-18T23:32:09.710Z,98024.38
2019-02-18T23:34:40.155Z,98017.88
2019-02-18T23:37:10.467Z,98023.12
2019-02-18T23:39:41.822Z,98024.20
2019-02-18T23:42:11.460Z,98024.48
2019-02-18T23:44:42.675Z,98030.52
2019-02-18T23:47:15.443Z,98026.38
2019-02-18T23:49:45.839Z,98032.11
2019-02-18T23:52:16.622Z,98019.03
2019-02-18T23:54:49.593Z,98021.52
2019-02-18T23:57:19.466Z,98021.28
2019-02-18T23:59:49.867Z,98023.17
